sensor_id;sensor_type;location;lat;lon;timestamp;temperature;humidity
36586;DHT22;22591;48.314;11.562;2023-08-20T00:00:10;21.50;97.60
36586;DHT22;22591;48.314;11.562;2023-08-20T00:02:37;21.50;97.70
36586;DHT22;22591;48.314;11.562;2023-08-20T00:05:06;21.50;98.10
36586;DHT22;22591;48.314;11.562;2023-08-20T00:07:32;21.50;98.40
36586;DHT22;22591;48.314;11.562;2023-08-20T00:09:58;21.60;98.70
36586;DHT22;22591;48.314;11.562;2023-08-20T00:12:24;21.60;99.00
36586;DHT22;22591;48.314;11.562;2023-08-20T00:14:53;21.60;99.20
36586;DHT22;22591;48.314;11.562;2023-08-20T00:17:24;21.60;99.10
36586;DHT22;22591;48.314;11.562;2023-08-20T00:19:53;21.70;99.10
36586;DHT22;22591;48.314;11.562;2023-08-20T00:22:20;21.70;99.00
36586;DHT22;22591;48.314;11.562;2023-08-20T00:24:46;21.60;99.00
36586;DHT22;22591;48.314;11.562;2023-08-20T00:27:12;21.60;99.00
36586;DHT22;22591;48.314;11.562;2023-08-20T00:29:38;21.60;99.00
36586;DHT22;22591;48.314;11.562;2023-08-20T00:32:03;21.60;99.10
36586;DHT22;22591;48.314;11.562;2023-08-20T00:34:29;21.60;99.30
36586;DHT22;22591;48.314;11.562;2023-08-20T00:36:54;21.60;99.60
36586;DHT22;22591;48.314;11.562;2023-08-20T00:39:20;21.60;99.80
36586;DHT22;22591;48.314;11.562;2023-08-20T00:41:45;21.60;99.90
36586;DHT22;22591;48.314;11.562;2023-08-20T00:44:11;21.60;99.90
36586;DHT22;22591;48.314;11.562;2023-08-20T00:46:37;21.60;99.90
36586;DHT22;22591;48.314;11.562;2023-08-20T00:49:02;21.50;99.90
36586;DHT22;22591;48.314;11.562;2023-08-20T00:51:28;21.60;99.90
36586;DHT22;22591;48.314;11.562;2023-08-20T00:53:54;21.50;99.90
36586;DHT22;22591;48.314;11.562;2023-08-20T00:56:20;21.50;99.90
36586;DHT22;22591;48.314;11.562;2023-08-20T00:58:46;21.50;99.90
36586;DHT22;22591;48.314;11.562;2023-08-20T01:01:12;21.40;99.90
36586;DHT22;22591;48.314;11.562;2023-08-20T01:03:37;21.40;99.90
36586;DHT22;22591;48.314;11.562;2023-08-20T01:11:54;21.30;99.90
36586;DHT22;22591;48.314;11.562;2023-08-20T01:14:20;21.30;99.90
36586;DHT22;22591;48.314;11.562;2023-08-20T01:16:46;21.10;99.90
36586;DHT22;22591;48.314;11.562;2023-08-20T01:19:16;21.10;99.90
36586;DHT22;22591;48.314;11.562;2023-08-20T01:22:11;21.10;99.90
36586;DHT22;22591;48.314;11.562;2023-08-20T01:27:43;20.90;99.90
36586;DHT22;22591;48.314;11.562;2023-08-20T01:30:15;20.80;99.90
36586;DHT22;22591;48.314;11.562;2023-08-20T01:32:41;20.80;99.90
36586;DHT22;22591;48.314;11.562;2023-08-20T01:35:13;20.70;99.90
36586;DHT22;22591;48.314;11.562;2023-08-20T01:37:39;20.70;99.90
36586;DHT22;22591;48.314;11.562;2023-08-20T01:40:06;20.60;99.90
36586;DHT22;22591;48.314;11.562;2023-08-20T01:42:33;20.50;99.90
36586;DHT22;22591;48.314;11.562;2023-08-20T01:44:58;20.50;99.90
36586;DHT22;22591;48.314;11.562;2023-08-20T01:47:24;20.40;99.90
36586;DHT22;22591;48.314;11.562;2023-08-20T01:49:49;20.40;99.90
36586;DHT22;22591;48.314;11.562;2023-08-20T01:52:15;20.40;99.90
36586;DHT22;22591;48.314;11.562;2023-08-20T01:54:40;20.40;99.90
36586;DHT22;22591;48.314;11.562;2023-08-20T01:57:06;20.40;99.90
36586;DHT22;22591;48.314;11.562;2023-08-20T01:59:31;20.30;99.90
36586;DHT22;22591;48.314;11.562;2023-08-20T02:01:57;20.30;99.90
36586;DHT22;22591;48.314;11.562;2023-08-20T02:04:22;20.30;99.90
36586;DHT22;22591;48.314;11.562;2023-08-20T02:06:48;20.30;99.90
36586;DHT22;22591;48.314;11.562;2023-08-20T02:09:13;20.20;99.90
36586;DHT22;22591;48.314;11.562;2023-08-20T02:11:39;20.10;99.90
36586;DHT22;22591;48.314;11.562;2023-08-20T02:14:05;20.10;99.90
36586;DHT22;22591;48.314;11.562;2023-08-20T02:16:30;20.00;99.90
36586;DHT22;22591;48.314;11.562;2023-08-20T02:18:56;20.10;99.90
36586;DHT22;22591;48.314;11.562;2023-08-20T02:21:21;20.00;99.90
36586;DHT22;22591;48.314;11.562;2023-08-20T02:23:47;20.00;99.90
36586;DHT22;22591;48.314;11.562;2023-08-20T02:26:12;20.00;99.90
36586;DHT22;22591;48.314;11.562;2023-08-20T02:28:38;19.90;99.90
36586;DHT22;22591;48.314;11.562;2023-08-20T02:31:04;19.80;99.90
36586;DHT22;22591;48.314;11.562;2023-08-20T02:33:30;19.80;99.90
36586;DHT22;22591;48.314;11.562;2023-08-20T02:36:01;19.70;99.90
36586;DHT22;22591;48.314;11.562;2023-08-20T02:38:27;19.70;99.90
36586;DHT22;22591;48.314;11.562;2023-08-20T02:40:52;19.70;99.90
36586;DHT22;22591;48.314;11.562;2023-08-20T02:43:18;19.60;99.90
36586;DHT22;22591;48.314;11.562;2023-08-20T02:45:43;19.60;99.90
36586;DHT22;22591;48.314;11.562;2023-08-20T02:48:09;19.50;99.90
36586;DHT22;22591;48.314;11.562;2023-08-20T02:50:35;19.50;99.90
36586;DHT22;22591;48.314;11.562;2023-08-20T02:53:01;19.40;99.90
36586;DHT22;22591;48.314;11.562;2023-08-20T02:55:26;19.40;99.90
36586;DHT22;22591;48.314;11.562;2023-08-20T02:57:52;19.30;99.90
36586;DHT22;22591;48.314;11.562;2023-08-20T03:00:17;19.30;99.90
36586;DHT22;22591;48.314;11.562;2023-08-20T03:02:43;19.30;99.90
36586;DHT22;22591;48.314;11.562;2023-08-20T03:05:09;19.30;99.90
36586;DHT22;22591;48.314;11.562;2023-08-20T03:07:35;19.30;99.90
36586;DHT22;22591;48.314;11.562;2023-08-20T03:10:01;19.20;99.90
36586;DHT22;22591;48.314;11.562;2023-08-20T03:12:28;19.20;99.90
36586;DHT22;22591;48.314;11.562;2023-08-20T03:14:53;19.20;99.90
36586;DHT22;22591;48.314;11.562;2023-08-20T03:17:19;19.10;99.90
36586;DHT22;22591;48.314;11.562;2023-08-20T03:20:14;19.10;99.90
36586;DHT22;22591;48.314;11.562;2023-08-20T03:22:39;19.10;99.90
36586;DHT22;22591;48.314;11.562;2023-08-20T03:25:05;19.10;99.90
36586;DHT22;22591;48.314;11.562;2023-08-20T03:27:31;19.00;99.90
36586;DHT22;22591;48.314;11.562;2023-08-20T03:29:56;19.00;99.90
36586;DHT22;22591;48.314;11.562;2023-08-20T03:32:22;19.00;99.90
36586;DHT22;22591;48.314;11.562;2023-08-20T03:34:48;19.00;99.90
36586;DHT22;22591;48.314;11.562;2023-08-20T03:37:14;18.90;99.90
36586;DHT22;22591;48.314;11.562;2023-08-20T03:39:40;18.80;99.90
36586;DHT22;22591;48.314;11.562;2023-08-20T03:42:05;19.00;99.90
36586;DHT22;22591;48.314;11.562;2023-08-20T03:44:31;18.90;99.90
36586;DHT22;22591;48.314;11.562;2023-08-20T03:46:57;18.90;99.90
36586;DHT22;22591;48.314;11.562;2023-08-20T03:49:23;18.90;99.90
36586;DHT22;22591;48.314;11.562;2023-08-20T03:51:48;18.90;99.90
36586;DHT22;22591;48.314;11.562;2023-08-20T03:54:14;18.90;99.90
36586;DHT22;22591;48.314;11.562;2023-08-20T03:56:39;18.90;99.90
36586;DHT22;22591;48.314;11.562;2023-08-20T03:59:05;18.90;99.90
36586;DHT22;22591;48.314;11.562;2023-08-20T04:01:30;18.90;99.90
36586;DHT22;22591;48.314;11.562;2023-08-20T04:03:56;18.90;99.90
36586;DHT22;22591;48.314;11.562;2023-08-20T04:06:22;18.80;99.90
36586;DHT22;22591;48.314;11.562;2023-08-20T04:08:47;18.80;99.90
36586;DHT22;22591;48.314;11.562;2023-08-20T04:11:14;18.80;99.90
36586;DHT22;22591;48.314;11.562;2023-08-20T04:13:40;18.80;99.90
36586;DHT22;22591;48.314;11.562;2023-08-20T04:16:08;18.90;99.90
36586;DHT22;22591;48.314;11.562;2023-08-20T04:18:33;18.90;99.90
36586;DHT22;22591;48.314;11.562;2023-08-20T04:20:59;18.90;99.90
36586;DHT22;22591;48.314;11.562;2023-08-20T04:23:24;18.80;99.90
36586;DHT22;22591;48.314;11.562;2023-08-20T04:25:50;18.90;99.90
36586;DHT22;22591;48.314;11.562;2023-08-20T04:28:16;18.80;99.90
36586;DHT22;22591;48.314;11.562;2023-08-20T04:30:41;18.80;99.90
36586;DHT22;22591;48.314;11.562;2023-08-20T04:33:07;18.80;99.90
36586;DHT22;22591;48.314;11.562;2023-08-20T04:35:33;18.80;99.90
36586;DHT22;22591;48.314;11.562;2023-08-20T04:37:59;18.80;99.90
36586;DHT22;22591;48.314;11.562;2023-08-20T04:40:24;18.80;99.90
36586;DHT22;22591;48.314;11.562;2023-08-20T04:42:51;18.80;99.90
36586;DHT22;22591;48.314;11.562;2023-08-20T04:45:17;18.80;99.90
36586;DHT22;22591;48.314;11.562;2023-08-20T04:47:47;18.90;99.90
36586;DHT22;22591;48.314;11.562;2023-08-20T04:50:13;18.90;99.90
36586;DHT22;22591;48.314;11.562;2023-08-20T04:52:39;18.90;99.90
36586;DHT22;22591;48.314;11.562;2023-08-20T04:55:05;19.00;99.90
36586;DHT22;22591;48.314;11.562;2023-08-20T04:57:31;19.00;99.90
36586;DHT22;22591;48.314;11.562;2023-08-20T04:59:57;19.00;99.90
36586;DHT22;22591;48.314;11.562;2023-08-20T05:02:22;18.90;99.90
36586;DHT22;22591;48.314;11.562;2023-08-20T05:04:48;19.00;99.90
36586;DHT22;22591;48.314;11.562;2023-08-20T05:07:14;19.00;99.90
36586;DHT22;22591;48.314;11.562;2023-08-20T05:09:40;19.10;99.90
36586;DHT22;22591;48.314;11.562;2023-08-20T05:12:06;19.10;99.90
36586;DHT22;22591;48.314;11.562;2023-08-20T05:14:32;19.20;99.90
36586;DHT22;22591;48.314;11.562;2023-08-20T05:16:57;19.30;99.90
36586;DHT22;22591;48.314;11.562;2023-08-20T05:19:23;19.40;99.90
36586;DHT22;22591;48.314;11.562;2023-08-20T05:21:49;19.50;99.90
36586;DHT22;22591;48.314;11.562;2023-08-20T05:24:14;19.60;99.90
36586;DHT22;22591;48.314;11.562;2023-08-20T05:26:40;19.70;99.90
36586;DHT22;22591;48.314;11.562;2023-08-20T05:29:05;19.80;99.90
36586;DHT22;22591;48.314;11.562;2023-08-20T05:31:31;20.00;99.90
36586;DHT22;22591;48.314;11.562;2023-08-20T05:33:56;20.10;99.90
36586;DHT22;22591;48.314;11.562;2023-08-20T05:36:23;20.20;99.90
36586;DHT22;22591;48.314;11.562;2023-08-20T05:38:49;20.40;99.90
36586;DHT22;22591;48.314;11.562;2023-08-20T05:41:14;20.50;99.90
36586;DHT22;22591;48.314;11.562;2023-08-20T05:43:40;20.70;99.90
36586;DHT22;22591;48.314;11.562;2023-08-20T05:46:05;20.70;99.90
36586;DHT22;22591;48.314;11.562;2023-08-20T05:48:31;20.90;99.90
36586;DHT22;22591;48.314;11.562;2023-08-20T05:50:56;21.00;99.90
36586;DHT22;22591;48.314;11.562;2023-08-20T05:53:22;21.20;99.90
36586;DHT22;22591;48.314;11.562;2023-08-20T05:55:48;21.30;99.90
36586;DHT22;22591;48.314;11.562;2023-08-20T05:58:14;21.50;99.90
36586;DHT22;22591;48.314;11.562;2023-08-20T06:00:39;21.60;99.90
36586;DHT22;22591;48.314;11.562;2023-08-20T06:03:05;21.90;99.90
36586;DHT22;22591;48.314;11.562;2023-08-20T06:05:33;22.00;99.90
36586;DHT22;22591;48.314;11.562;2023-08-20T06:07:58;22.10;99.90
36586;DHT22;22591;48.314;11.562;2023-08-20T06:10:24;22.30;99.90
36586;DHT22;22591;48.314;11.562;2023-08-20T06:12:49;22.30;99.90
36586;DHT22;22591;48.314;11.562;2023-08-20T06:15:15;22.50;99.90
36586;DHT22;22591;48.314;11.562;2023-08-20T06:17:40;22.60;99.90
36586;DHT22;22591;48.314;11.562;2023-08-20T06:20:06;22.70;99.90
36586;DHT22;22591;48.314;11.562;2023-08-20T06:22:33;22.90;99.90
36586;DHT22;22591;48.314;11.562;2023-08-20T06:24:59;22.90;99.90
36586;DHT22;22591;48.314;11.562;2023-08-20T06:27:25;23.00;99.90
36586;DHT22;22591;48.314;11.562;2023-08-20T06:29:50;23.10;99.90
36586;DHT22;22591;48.314;11.562;2023-08-20T06:32:16;23.10;99.90
36586;DHT22;22591;48.314;11.562;2023-08-20T06:34:41;23.20;99.90
36586;DHT22;22591;48.314;11.562;2023-08-20T06:37:07;23.40;99.90
36586;DHT22;22591;48.314;11.562;2023-08-20T06:39:33;23.60;99.90
36586;DHT22;22591;48.314;11.562;2023-08-20T06:41:58;23.70;99.90
36586;DHT22;22591;48.314;11.562;2023-08-20T06:44:24;23.70;99.90
36586;DHT22;22591;48.314;11.562;2023-08-20T06:46:49;23.80;99.90
36586;DHT22;22591;48.314;11.562;2023-08-20T06:49:15;23.90;99.90
36586;DHT22;22591;48.314;11.562;2023-08-20T06:51:41;24.00;99.90
36586;DHT22;22591;48.314;11.562;2023-08-20T06:54:06;24.10;99.90
36586;DHT22;22591;48.314;11.562;2023-08-20T06:56:32;24.20;99.90
36586;DHT22;22591;48.314;11.562;2023-08-20T06:58:58;24.30;99.90
36586;DHT22;22591;48.314;11.562;2023-08-20T07:01:23;24.40;99.90
36586;DHT22;22591;48.314;11.562;2023-08-20T07:03:49;24.50;99.90
36586;DHT22;22591;48.314;11.562;2023-08-20T07:06:14;24.60;99.90
36586;DHT22;22591;48.314;11.562;2023-08-20T07:08:41;24.60;99.90
36586;DHT22;22591;48.314;11.562;2023-08-20T07:11:07;24.80;99.90
36586;DHT22;22591;48.314;11.562;2023-08-20T07:13:33;24.90;99.90
36586;DHT22;22591;48.314;11.562;2023-08-20T07:15:59;24.90;99.90
36586;DHT22;22591;48.314;11.562;2023-08-20T07:18:25;24.90;99.90
36586;DHT22;22591;48.314;11.562;2023-08-20T07:20:51;24.90;99.90
36586;DHT22;22591;48.314;11.562;2023-08-20T07:23:17;25.00;99.90
36586;DHT22;22591;48.314;11.562;2023-08-20T07:25:43;25.10;99.90
36586;DHT22;22591;48.314;11.562;2023-08-20T07:28:10;25.20;99.90
36586;DHT22;22591;48.314;11.562;2023-08-20T07:30:36;25.30;99.90
36586;DHT22;22591;48.314;11.562;2023-08-20T07:33:03;25.40;99.90
36586;DHT22;22591;48.314;11.562;2023-08-20T07:35:28;25.50;99.90
36586;DHT22;22591;48.314;11.562;2023-08-20T07:37:54;25.60;99.90
36586;DHT22;22591;48.314;11.562;2023-08-20T07:40:20;25.70;99.90
36586;DHT22;22591;48.314;11.562;2023-08-20T07:42:45;25.80;99.70
36586;DHT22;22591;48.314;11.562;2023-08-20T07:45:11;25.90;99.90
36586;DHT22;22591;48.314;11.562;2023-08-20T07:47:37;25.90;99.90
36586;DHT22;22591;48.314;11.562;2023-08-20T07:50:05;25.90;99.90
36586;DHT22;22591;48.314;11.562;2023-08-20T07:52:31;26.00;99.90
36586;DHT22;22591;48.314;11.562;2023-08-20T07:54:57;26.10;99.90
36586;DHT22;22591;48.314;11.562;2023-08-20T07:57:23;26.20;99.90
36586;DHT22;22591;48.314;11.562;2023-08-20T07:59:49;26.30;99.90
36586;DHT22;22591;48.314;11.562;2023-08-20T08:02:15;26.40;99.40
36586;DHT22;22591;48.314;11.562;2023-08-20T08:04:42;26.50;98.90
36586;DHT22;22591;48.314;11.562;2023-08-20T08:07:08;26.60;98.40
36586;DHT22;22591;48.314;11.562;2023-08-20T08:09:33;26.70;96.80
36586;DHT22;22591;48.314;11.562;2023-08-20T08:11:59;26.70;95.70
36586;DHT22;22591;48.314;11.562;2023-08-20T08:14:25;26.80;95.40
36586;DHT22;22591;48.314;11.562;2023-08-20T08:16:52;26.80;94.90
36586;DHT22;22591;48.314;11.562;2023-08-20T08:19:18;27.00;94.20
36586;DHT22;22591;48.314;11.562;2023-08-20T08:21:45;27.00;94.10
36586;DHT22;22591;48.314;11.562;2023-08-20T08:24:12;27.20;94.30
36586;DHT22;22591;48.314;11.562;2023-08-20T08:26:38;27.20;94.20
36586;DHT22;22591;48.314;11.562;2023-08-20T08:29:04;27.40;94.10
36586;DHT22;22591;48.314;11.562;2023-08-20T08:31:30;27.40;93.90
36586;DHT22;22591;48.314;11.562;2023-08-20T08:33:56;27.50;94.10
36586;DHT22;22591;48.314;11.562;2023-08-20T08:36:22;27.60;93.70
36586;DHT22;22591;48.314;11.562;2023-08-20T08:38:50;27.60;93.60
36586;DHT22;22591;48.314;11.562;2023-08-20T08:41:16;27.60;93.60
36586;DHT22;22591;48.314;11.562;2023-08-20T08:43:42;27.70;93.50
36586;DHT22;22591;48.314;11.562;2023-08-20T08:46:13;27.80;93.50
36586;DHT22;22591;48.314;11.562;2023-08-20T08:48:43;27.90;93.00
36586;DHT22;22591;48.314;11.562;2023-08-20T08:51:14;28.00;92.60
36586;DHT22;22591;48.314;11.562;2023-08-20T08:53:42;28.00;92.40
36586;DHT22;22591;48.314;11.562;2023-08-20T08:56:08;28.20;91.00
36586;DHT22;22591;48.314;11.562;2023-08-20T08:58:34;28.30;91.00
36586;DHT22;22591;48.314;11.562;2023-08-20T09:00:59;28.50;88.80
36586;DHT22;22591;48.314;11.562;2023-08-20T09:03:25;28.50;88.10
36586;DHT22;22591;48.314;11.562;2023-08-20T09:05:56;28.70;87.80
36586;DHT22;22591;48.314;11.562;2023-08-20T09:08:29;28.90;87.10
36586;DHT22;22591;48.314;11.562;2023-08-20T09:10:57;29.00;87.60
36586;DHT22;22591;48.314;11.562;2023-08-20T09:13:33;29.10;87.00
36586;DHT22;22591;48.314;11.562;2023-08-20T09:15:59;29.20;87.00
36586;DHT22;22591;48.314;11.562;2023-08-20T09:18:24;29.30;86.00
36586;DHT22;22591;48.314;11.562;2023-08-20T09:20:50;29.30;85.50
36586;DHT22;22591;48.314;11.562;2023-08-20T09:23:16;29.40;84.50
36586;DHT22;22591;48.314;11.562;2023-08-20T09:25:43;29.40;84.20
36586;DHT22;22591;48.314;11.562;2023-08-20T09:28:09;29.50;84.10
36586;DHT22;22591;48.314;11.562;2023-08-20T09:30:34;29.50;83.20
36586;DHT22;22591;48.314;11.562;2023-08-20T09:33:12;29.50;83.00
36586;DHT22;22591;48.314;11.562;2023-08-20T09:35:50;29.60;81.70
36586;DHT22;22591;48.314;11.562;2023-08-20T09:38:19;29.60;80.40
36586;DHT22;22591;48.314;11.562;2023-08-20T09:40:52;29.60;79.80
36586;DHT22;22591;48.314;11.562;2023-08-20T09:43:18;29.70;79.90
36586;DHT22;22591;48.314;11.562;2023-08-20T09:45:46;29.80;78.70
36586;DHT22;22591;48.314;11.562;2023-08-20T09:48:16;29.80;77.70
36586;DHT22;22591;48.314;11.562;2023-08-20T09:50:43;29.80;77.70
36586;DHT22;22591;48.314;11.562;2023-08-20T09:53:25;29.90;78.10
36586;DHT22;22591;48.314;11.562;2023-08-20T09:55:52;30.00;76.90
36586;DHT22;22591;48.314;11.562;2023-08-20T09:58:19;30.00;77.30
36586;DHT22;22591;48.314;11.562;2023-08-20T10:00:49;30.10;77.90
36586;DHT22;22591;48.314;11.562;2023-08-20T10:03:15;30.10;78.10
36586;DHT22;22591;48.314;11.562;2023-08-20T10:05:41;30.20;78.60
36586;DHT22;22591;48.314;11.562;2023-08-20T10:08:07;30.30;78.50
36586;DHT22;22591;48.314;11.562;2023-08-20T10:10:33;30.40;78.00
36586;DHT22;22591;48.314;11.562;2023-08-20T10:12:59;30.50;78.10
36586;DHT22;22591;48.314;11.562;2023-08-20T10:15:26;30.60;77.60
36586;DHT22;22591;48.314;11.562;2023-08-20T10:17:53;30.60;77.30
36586;DHT22;22591;48.314;11.562;2023-08-20T10:20:19;30.60;76.60
36586;DHT22;22591;48.314;11.562;2023-08-20T10:22:45;30.50;76.30
36586;DHT22;22591;48.314;11.562;2023-08-20T10:25:24;30.60;76.50
36586;DHT22;22591;48.314;11.562;2023-08-20T10:27:50;30.60;75.80
36586;DHT22;22591;48.314;11.562;2023-08-20T10:30:18;30.70;75.70
36586;DHT22;22591;48.314;11.562;2023-08-20T10:32:49;30.80;74.80
36586;DHT22;22591;48.314;11.562;2023-08-20T10:35:17;30.90;74.80
36586;DHT22;22591;48.314;11.562;2023-08-20T10:38:02;30.90;74.60
36586;DHT22;22591;48.314;11.562;2023-08-20T10:40:57;31.00;73.50
36586;DHT22;22591;48.314;11.562;2023-08-20T10:46:20;31.10;73.50
36586;DHT22;22591;48.314;11.562;2023-08-20T10:51:24;31.20;72.60
36586;DHT22;22591;48.314;11.562;2023-08-20T10:54:09;31.10;72.50
36586;DHT22;22591;48.314;11.562;2023-08-20T10:56:44;31.30;72.20
36586;DHT22;22591;48.314;11.562;2023-08-20T10:59:31;31.30;71.80
36586;DHT22;22591;48.314;11.562;2023-08-20T11:01:58;31.30;71.80
36586;DHT22;22591;48.314;11.562;2023-08-20T11:04:28;31.40;70.20
36586;DHT22;22591;48.314;11.562;2023-08-20T11:06:55;31.50;70.50
36586;DHT22;22591;48.314;11.562;2023-08-20T11:09:26;31.60;70.20
36586;DHT22;22591;48.314;11.562;2023-08-20T11:11:52;31.60;69.80
36586;DHT22;22591;48.314;11.562;2023-08-20T11:14:19;31.70;68.70
36586;DHT22;22591;48.314;11.562;2023-08-20T11:16:46;31.60;68.70
36586;DHT22;22591;48.314;11.562;2023-08-20T11:19:13;31.60;67.60
36586;DHT22;22591;48.314;11.562;2023-08-20T11:21:40;31.50;67.50
36586;DHT22;22591;48.314;11.562;2023-08-20T11:24:06;31.50;68.70
36586;DHT22;22591;48.314;11.562;2023-08-20T11:26:33;31.60;69.30
36586;DHT22;22591;48.314;11.562;2023-08-20T11:29:00;31.70;68.50
36586;DHT22;22591;48.314;11.562;2023-08-20T11:31:25;31.70;68.50
36586;DHT22;22591;48.314;11.562;2023-08-20T11:33:51;31.90;68.70
36586;DHT22;22591;48.314;11.562;2023-08-20T11:36:18;31.90;67.90
36586;DHT22;22591;48.314;11.562;2023-08-20T11:38:50;31.90;63.70
36586;DHT22;22591;48.314;11.562;2023-08-20T11:41:16;32.00;64.50
36586;DHT22;22591;48.314;11.562;2023-08-20T11:43:42;32.10;65.60
36586;DHT22;22591;48.314;11.562;2023-08-20T11:46:22;32.10;66.20
36586;DHT22;22591;48.314;11.562;2023-08-20T11:51:27;32.40;64.80
36586;DHT22;22591;48.314;11.562;2023-08-20T11:53:52;32.50;64.90
36586;DHT22;22591;48.314;11.562;2023-08-20T11:56:18;32.60;63.40
36586;DHT22;22591;48.314;11.562;2023-08-20T11:58:49;32.60;62.70
36586;DHT22;22591;48.314;11.562;2023-08-20T12:01:14;32.70;61.90
36586;DHT22;22591;48.314;11.562;2023-08-20T12:03:40;32.70;62.30
36586;DHT22;22591;48.314;11.562;2023-08-20T12:06:19;32.70;62.10
36586;DHT22;22591;48.314;11.562;2023-08-20T12:08:45;32.60;61.20
36586;DHT22;22591;48.314;11.562;2023-08-20T12:11:10;32.60;61.50
36586;DHT22;22591;48.314;11.562;2023-08-20T12:13:36;32.60;61.70
36586;DHT22;22591;48.314;11.562;2023-08-20T12:16:02;32.80;60.20
36586;DHT22;22591;48.314;11.562;2023-08-20T12:18:27;33.00;60.10
36586;DHT22;22591;48.314;11.562;2023-08-20T12:20:53;33.00;60.10
36586;DHT22;22591;48.314;11.562;2023-08-20T12:23:18;32.80;59.50
36586;DHT22;22591;48.314;11.562;2023-08-20T12:25:50;32.80;59.80
36586;DHT22;22591;48.314;11.562;2023-08-20T12:28:15;32.90;59.30
36586;DHT22;22591;48.314;11.562;2023-08-20T12:30:41;32.90;59.10
36586;DHT22;22591;48.314;11.562;2023-08-20T12:33:07;32.80;58.90
36586;DHT22;22591;48.314;11.562;2023-08-20T12:35:32;32.80;59.60
36586;DHT22;22591;48.314;11.562;2023-08-20T12:37:58;32.90;59.70
36586;DHT22;22591;48.314;11.562;2023-08-20T12:40:23;32.90;59.70
36586;DHT22;22591;48.314;11.562;2023-08-20T12:42:49;32.90;59.80
36586;DHT22;22591;48.314;11.562;2023-08-20T12:45:14;32.90;60.00
36586;DHT22;22591;48.314;11.562;2023-08-20T12:47:40;32.90;59.70
36586;DHT22;22591;48.314;11.562;2023-08-20T12:50:06;32.70;58.90
36586;DHT22;22591;48.314;11.562;2023-08-20T12:52:33;32.70;59.10
36586;DHT22;22591;48.314;11.562;2023-08-20T12:54:58;32.80;58.40
36586;DHT22;22591;48.314;11.562;2023-08-20T12:57:24;32.80;57.90
36586;DHT22;22591;48.314;11.562;2023-08-20T12:59:50;32.70;58.30
36586;DHT22;22591;48.314;11.562;2023-08-20T13:02:15;32.70;58.60
36586;DHT22;22591;48.314;11.562;2023-08-20T13:04:41;32.80;58.90
36586;DHT22;22591;48.314;11.562;2023-08-20T13:07:07;32.80;59.20
36586;DHT22;22591;48.314;11.562;2023-08-20T13:09:33;32.90;59.50
36586;DHT22;22591;48.314;11.562;2023-08-20T13:12:01;32.90;59.20
36586;DHT22;22591;48.314;11.562;2023-08-20T13:14:29;33.00;58.90
36586;DHT22;22591;48.314;11.562;2023-08-20T13:16:55;33.00;58.70
36586;DHT22;22591;48.314;11.562;2023-08-20T13:19:21;33.00;59.60
36586;DHT22;22591;48.314;11.562;2023-08-20T13:21:47;33.00;59.50
36586;DHT22;22591;48.314;11.562;2023-08-20T13:24:13;33.00;59.30
36586;DHT22;22591;48.314;11.562;2023-08-20T13:26:38;33.00;60.10
36586;DHT22;22591;48.314;11.562;2023-08-20T13:29:04;33.00;59.60
36586;DHT22;22591;48.314;11.562;2023-08-20T13:31:29;33.10;59.60
36586;DHT22;22591;48.314;11.562;2023-08-20T13:33:55;33.10;59.70
36586;DHT22;22591;48.314;11.562;2023-08-20T13:36:20;33.10;60.30
36586;DHT22;22591;48.314;11.562;2023-08-20T13:38:46;33.20;60.00
36586;DHT22;22591;48.314;11.562;2023-08-20T13:41:11;33.20;59.70
36586;DHT22;22591;48.314;11.562;2023-08-20T13:43:37;33.30;59.80
36586;DHT22;22591;48.314;11.562;2023-08-20T13:46:02;33.30;59.90
36586;DHT22;22591;48.314;11.562;2023-08-20T13:48:28;33.20;60.50
36586;DHT22;22591;48.314;11.562;2023-08-20T13:50:54;33.30;61.20
36586;DHT22;22591;48.314;11.562;2023-08-20T13:53:19;33.30;60.70
36586;DHT22;22591;48.314;11.562;2023-08-20T13:55:45;33.20;60.70
36586;DHT22;22591;48.314;11.562;2023-08-20T13:58:10;33.30;60.80
36586;DHT22;22591;48.314;11.562;2023-08-20T14:00:36;33.40;60.90
36586;DHT22;22591;48.314;11.562;2023-08-20T14:03:01;33.30;60.10
36586;DHT22;22591;48.314;11.562;2023-08-20T14:05:27;33.20;59.80
36586;DHT22;22591;48.314;11.562;2023-08-20T14:07:54;33.20;59.70
36586;DHT22;22591;48.314;11.562;2023-08-20T14:10:19;33.20;59.40
36586;DHT22;22591;48.314;11.562;2023-08-20T14:12:45;33.30;59.10
36586;DHT22;22591;48.314;11.562;2023-08-20T14:15:11;33.10;59.20
36586;DHT22;22591;48.314;11.562;2023-08-20T14:17:36;33.00;59.00
36586;DHT22;22591;48.314;11.562;2023-08-20T14:20:02;33.00;59.30
36586;DHT22;22591;48.314;11.562;2023-08-20T14:22:28;33.10;59.20
36586;DHT22;22591;48.314;11.562;2023-08-20T14:24:54;33.10;58.90
36586;DHT22;22591;48.314;11.562;2023-08-20T14:27:19;33.20;58.90
36586;DHT22;22591;48.314;11.562;2023-08-20T14:29:46;33.10;58.30
36586;DHT22;22591;48.314;11.562;2023-08-20T14:32:11;33.10;58.00
36586;DHT22;22591;48.314;11.562;2023-08-20T14:34:37;33.20;58.10
36586;DHT22;22591;48.314;11.562;2023-08-20T14:37:02;33.30;58.60
36586;DHT22;22591;48.314;11.562;2023-08-20T14:39:29;33.30;59.30
36586;DHT22;22591;48.314;11.562;2023-08-20T14:41:56;33.30;58.90
36586;DHT22;22591;48.314;11.562;2023-08-20T14:44:22;33.30;59.10
36586;DHT22;22591;48.314;11.562;2023-08-20T14:46:48;33.30;58.90
36586;DHT22;22591;48.314;11.562;2023-08-20T14:49:14;33.20;58.40
36586;DHT22;22591;48.314;11.562;2023-08-20T14:51:39;33.30;58.50
36586;DHT22;22591;48.314;11.562;2023-08-20T14:54:05;33.20;57.70
36586;DHT22;22591;48.314;11.562;2023-08-20T14:56:30;33.20;57.40
36586;DHT22;22591;48.314;11.562;2023-08-20T14:58:56;33.20;57.90
36586;DHT22;22591;48.314;11.562;2023-08-20T15:01:21;33.20;58.50
36586;DHT22;22591;48.314;11.562;2023-08-20T15:03:47;33.20;59.00
36586;DHT22;22591;48.314;11.562;2023-08-20T15:06:12;33.20;58.40
36586;DHT22;22591;48.314;11.562;2023-08-20T15:08:39;33.20;58.80
36586;DHT22;22591;48.314;11.562;2023-08-20T15:11:05;33.30;59.60
36586;DHT22;22591;48.314;11.562;2023-08-20T15:13:31;33.40;59.70
36586;DHT22;22591;48.314;11.562;2023-08-20T15:15:57;33.30;58.30
36586;DHT22;22591;48.314;11.562;2023-08-20T15:18:23;33.30;58.30
36586;DHT22;22591;48.314;11.562;2023-08-20T15:20:56;33.30;58.70
36586;DHT22;22591;48.314;11.562;2023-08-20T15:23:23;33.30;58.60
36586;DHT22;22591;48.314;11.562;2023-08-20T15:25:54;33.30;59.30
36586;DHT22;22591;48.314;11.562;2023-08-20T15:28:21;33.30;59.20